首页
METAR-TAF:

METAR-TAF

机场 :

诺福克海军基地

諾福克, 弗吉尼亚州, 美国

纬度: 36-56-01N, 经度: 076-17-45W, 海拔: 4米

当前天气观测

该预报发布于17分钟前的23:49 UTC
静风
温度 18°C
湿度 73%
气压 1011 hPa
能見度: 4.8公里
多云层高于2500英尺, 积雨云.
多云层高于7000英尺
阴天层高于10000英尺
雷暴, 雨

METAR: KNGU 072349Z 00000KT 3SM TSRA BKN025CB BKN070 OVC100 18/13 A2984 RMK AO2 WSHFT 2326 RAB41 TSB48 FRQ LTG ICCCCG OHD TS OHD MOV SE T1 SET P0002 T01780133

时间: 20:06 (00:06 UTC)

预报

预报有效从07日的 23点(UTC)到 08日的 23点(UTC)
风速13节,风向西,有时为20节阵风
能见度10公里或以上
散云层高于3500英尺, 积雨云.
阴天层高于10000英尺
附近有雷暴
短暂存在
从 07日的 23点(UTC)到 08日的 02点(UTC)
风速15节,风向多变,有时为25节阵风
能見度: 6000
多云层高于2500英尺, 积雨云.
雷暴, 小雨, 轻雾
从 08日的 0300点(UTC)
风速8节,风向西南
能见度10公里或以上
少量云层高于5000英尺
从 08日的 1200点(UTC)
风速10节,风向西
能见度10公里或以上
散云层高于26000英尺
短暂存在
从 08日的 18点(UTC)到 08日的 23点(UTC)
能見度: 4800
多云层高于2000英尺, 积雨云.
阴天层高于26000英尺
雷暴, 雨

TAF: KNGU 0723/0823 28013G20KT 9999 VCTS SCT035CB OVC100 QNH2973INS TEMPO 0723/0802 VRB15G25KT 6000 -TSRA BR BKN025CB FM080300 22008KT 9999 FEW050 QNH2961INS FM081200 26010KT 9999 SCT260 QNH2951INS TEMPO 0818/0823 VRG20G30KT 4800 TSRA BKN020CB OVC260 T16/0810Z T28/0818Z FN20067

超过4000个机场的气象观测和天气预报(METAR&TAF报告)。

可查询的气象台以黄色和红色小点在地图上表示。

将鼠标移到小点上方,可查看气象台名称。

然后点击查看天气观测和预报。

如需切换地图:点击带黑十字的绿色按钮放大地图;点击带横线的绿色按钮缩小地图;或者点击绿色箭头查看邻近地区的地图。


METAR-TAF: